sensor_id;sensor_type;location;lat;lon;timestamp;temperature;humidity
70202;DHT22;57724;52.164;5.408;2022-08-19T00:01:33;20.90;85.90
70202;DHT22;57724;52.164;5.408;2022-08-19T00:04:07;20.30;94.10
70202;DHT22;57724;52.164;5.408;2022-08-19T00:09:04;21.10;94.30
70202;DHT22;57724;52.164;5.408;2022-08-19T00:11:32;20.00;94.00
70202;DHT22;57724;52.164;5.408;2022-08-19T00:13:59;19.70;94.00
70202;DHT22;57724;52.164;5.408;2022-08-19T00:16:27;19.80;94.10
70202;DHT22;57724;52.164;5.408;2022-08-19T00:18:54;19.90;87.00
70202;DHT22;57724;52.164;5.408;2022-08-19T00:21:24;19.80;94.10
70202;DHT22;57724;52.164;5.408;2022-08-19T00:23:51;20.70;87.30
70202;DHT22;57724;52.164;5.408;2022-08-19T00:26:18;20.70;86.90
70202;DHT22;57724;52.164;5.408;2022-08-19T00:28:45;19.60;90.90
70202;DHT22;57724;52.164;5.408;2022-08-19T00:33:42;21.50;91.40
70202;DHT22;57724;52.164;5.408;2022-08-19T00:36:10;21.20;94.60
70202;DHT22;57724;52.164;5.408;2022-08-19T00:38:38;20.30;94.50
70202;DHT22;57724;52.164;5.408;2022-08-19T00:41:08;19.60;94.40
70202;DHT22;57724;52.164;5.408;2022-08-19T00:43:35;21.90;95.00
70202;DHT22;57724;52.164;5.408;2022-08-19T00:48:32;20.10;94.70
70202;DHT22;57724;52.164;5.408;2022-08-19T00:51:01;21.80;95.20
70202;DHT22;57724;52.164;5.408;2022-08-19T00:53:31;21.30;95.10
70202;DHT22;57724;52.164;5.408;2022-08-19T00:55:59;20.50;87.70
70202;DHT22;57724;52.164;5.408;2022-08-19T00:58:31;20.40;88.20
70202;DHT22;57724;52.164;5.408;2022-08-19T01:00:59;19.40;95.00
70202;DHT22;57724;52.164;5.408;2022-08-19T01:03:27;21.40;90.10
70202;DHT22;57724;52.164;5.408;2022-08-19T01:06:14;19.10;95.00
70202;DHT22;57724;52.164;5.408;2022-08-19T01:08:45;19.50;90.40
70202;DHT22;57724;52.164;5.408;2022-08-19T01:11:16;19.10;95.30
70202;DHT22;57724;52.164;5.408;2022-08-19T01:13:43;20.00;95.50
70202;DHT22;57724;52.164;5.408;2022-08-19T01:16:18;18.90;90.60
70202;DHT22;57724;52.164;5.408;2022-08-19T01:18:46;20.00;88.50
70202;DHT22;57724;52.164;5.408;2022-08-19T01:21:32;19.40;95.70
70202;DHT22;57724;52.164;5.408;2022-08-19T01:24:01;20.70;91.50
70202;DHT22;57724;52.164;5.408;2022-08-19T01:28:58;20.20;96.10
70202;DHT22;57724;52.164;5.408;2022-08-19T01:31:28;21.00;95.40
70202;DHT22;57724;52.164;5.408;2022-08-19T01:34:00;21.20;91.10
70202;DHT22;57724;52.164;5.408;2022-08-19T01:36:34;21.10;96.60
70202;DHT22;57724;52.164;5.408;2022-08-19T01:39:05;20.30;95.20
70202;DHT22;57724;52.164;5.408;2022-08-19T01:41:33;18.60;96.10
70202;DHT22;57724;52.164;5.408;2022-08-19T01:44:00;18.50;96.20
70202;DHT22;57724;52.164;5.408;2022-08-19T01:46:46;19.10;96.50
70202;DHT22;57724;52.164;5.408;2022-08-19T01:49:16;18.80;96.40
70202;DHT22;57724;52.164;5.408;2022-08-19T01:51:43;19.60;91.00
70202;DHT22;57724;52.164;5.408;2022-08-19T01:54:12;20.90;97.00
70202;DHT22;57724;52.164;5.408;2022-08-19T01:56:50;19.50;90.60
70202;DHT22;57724;52.164;5.408;2022-08-19T01:59:19;19.90;91.00
70202;DHT22;57724;52.164;5.408;2022-08-19T02:01:48;19.20;95.90
70202;DHT22;57724;52.164;5.408;2022-08-19T02:04:15;18.70;96.40
70202;DHT22;57724;52.164;5.408;2022-08-19T02:09:09;20.90;96.80
70202;DHT22;57724;52.164;5.408;2022-08-19T02:11:37;19.70;90.30
70202;DHT22;57724;52.164;5.408;2022-08-19T02:14:07;19.50;96.60
70202;DHT22;57724;52.164;5.408;2022-08-19T02:16:35;19.60;90.60
70202;DHT22;57724;52.164;5.408;2022-08-19T02:19:03;18.40;96.50
70202;DHT22;57724;52.164;5.408;2022-08-19T02:21:30;19.90;96.90
70202;DHT22;57724;52.164;5.408;2022-08-19T02:23:57;20.70;97.20
70202;DHT22;57724;52.164;5.408;2022-08-19T02:26:24;18.90;91.80
70202;DHT22;57724;52.164;5.408;2022-08-19T02:28:53;18.80;92.00
70202;DHT22;57724;52.164;5.408;2022-08-19T02:31:22;20.40;97.10
70202;DHT22;57724;52.164;5.408;2022-08-19T02:33:52;19.30;93.80
70202;DHT22;57724;52.164;5.408;2022-08-19T02:36:24;19.90;96.90
70202;DHT22;57724;52.164;5.408;2022-08-19T02:41:27;19.90;96.80
70202;DHT22;57724;52.164;5.408;2022-08-19T02:43:55;20.30;96.90
70202;DHT22;57724;52.164;5.408;2022-08-19T02:46:46;20.50;96.80
70202;DHT22;57724;52.164;5.408;2022-08-19T02:51:44;20.30;96.80
70202;DHT22;57724;52.164;5.408;2022-08-19T02:54:12;20.40;96.90
70202;DHT22;57724;52.164;5.408;2022-08-19T02:56:40;20.70;97.10
70202;DHT22;57724;52.164;5.408;2022-08-19T02:59:07;18.90;96.60
70202;DHT22;57724;52.164;5.408;2022-08-19T03:01:38;19.40;90.90
70202;DHT22;57724;52.164;5.408;2022-08-19T03:04:09;18.60;96.50
70202;DHT22;57724;52.164;5.408;2022-08-19T03:06:37;19.60;91.10
70202;DHT22;57724;52.164;5.408;2022-08-19T03:09:04;18.60;96.40
70202;DHT22;57724;52.164;5.408;2022-08-19T03:11:31;19.50;90.40
70202;DHT22;57724;52.164;5.408;2022-08-19T03:13:59;19.50;90.00
70202;DHT22;57724;52.164;5.408;2022-08-19T03:16:30;20.20;96.80
70202;DHT22;57724;52.164;5.408;2022-08-19T03:19:00;19.50;90.50
70202;DHT22;57724;52.164;5.408;2022-08-19T03:21:32;18.50;96.50
70202;DHT22;57724;52.164;5.408;2022-08-19T03:24:03;20.20;92.20
70202;DHT22;57724;52.164;5.408;2022-08-19T03:26:30;20.60;97.10
70202;DHT22;57724;52.164;5.408;2022-08-19T03:28:57;20.70;97.10
70202;DHT22;57724;52.164;5.408;2022-08-19T03:31:30;18.10;96.50
70202;DHT22;57724;52.164;5.408;2022-08-19T03:34:20;19.20;96.80
70202;DHT22;57724;52.164;5.408;2022-08-19T03:36:47;18.10;96.60
70202;DHT22;57724;52.164;5.408;2022-08-19T03:39:15;20.50;95.80
70202;DHT22;57724;52.164;5.408;2022-08-19T03:41:44;19.20;96.80
70202;DHT22;57724;52.164;5.408;2022-08-19T03:44:16;19.20;90.60
70202;DHT22;57724;52.164;5.408;2022-08-19T03:46:50;18.70;96.60
70202;DHT22;57724;52.164;5.408;2022-08-19T03:49:18;18.60;96.60
70202;DHT22;57724;52.164;5.408;2022-08-19T03:51:46;20.10;97.10
70202;DHT22;57724;52.164;5.408;2022-08-19T03:54:16;18.90;96.90
70202;DHT22;57724;52.164;5.408;2022-08-19T03:56:46;18.20;96.80
70202;DHT22;57724;52.164;5.408;2022-08-19T03:59:16;17.70;91.50
70202;DHT22;57724;52.164;5.408;2022-08-19T04:01:44;18.30;97.00
70202;DHT22;57724;52.164;5.408;2022-08-19T04:04:10;20.10;97.60
70202;DHT22;57724;52.164;5.408;2022-08-19T04:06:39;20.00;97.60
70202;DHT22;57724;52.164;5.408;2022-08-19T04:09:09;17.80;91.20
70202;DHT22;57724;52.164;5.408;2022-08-19T04:11:41;18.10;90.90
70202;DHT22;57724;52.164;5.408;2022-08-19T04:14:14;18.60;91.10
70202;DHT22;57724;52.164;5.408;2022-08-19T04:16:42;17.60;97.10
70202;DHT22;57724;52.164;5.408;2022-08-19T04:19:11;17.50;97.20
70202;DHT22;57724;52.164;5.408;2022-08-19T04:24:05;17.50;97.40
70202;DHT22;57724;52.164;5.408;2022-08-19T04:26:35;17.60;91.30
70202;DHT22;57724;52.164;5.408;2022-08-19T04:29:12;18.30;90.70
70202;DHT22;57724;52.164;5.408;2022-08-19T04:31:40;17.30;93.00
70202;DHT22;57724;52.164;5.408;2022-08-19T04:34:09;19.50;98.10
70202;DHT22;57724;52.164;5.408;2022-08-19T04:36:41;17.60;97.70
70202;DHT22;57724;52.164;5.408;2022-08-19T04:39:13;18.70;98.00
70202;DHT22;57724;52.164;5.408;2022-08-19T04:41:40;18.00;97.80
70202;DHT22;57724;52.164;5.408;2022-08-19T04:44:26;19.50;98.10
70202;DHT22;57724;52.164;5.408;2022-08-19T04:49:22;19.40;98.20
70202;DHT22;57724;52.164;5.408;2022-08-19T04:51:50;18.20;91.70
70202;DHT22;57724;52.164;5.408;2022-08-19T04:54:22;19.40;98.20
70202;DHT22;57724;52.164;5.408;2022-08-19T04:57:09;18.30;91.80
70202;DHT22;57724;52.164;5.408;2022-08-19T04:59:37;17.00;97.70
70202;DHT22;57724;52.164;5.408;2022-08-19T05:02:07;19.50;98.30
70202;DHT22;57724;52.164;5.408;2022-08-19T05:04:34;17.60;92.40
70202;DHT22;57724;52.164;5.408;2022-08-19T05:09:30;19.50;98.50
70202;DHT22;57724;52.164;5.408;2022-08-19T05:12:17;18.20;91.70
70202;DHT22;57724;52.164;5.408;2022-08-19T05:17:14;18.30;98.10
70202;DHT22;57724;52.164;5.408;2022-08-19T05:22:47;20.00;95.30
70202;DHT22;57724;52.164;5.408;2022-08-19T05:25:17;17.90;97.60
70202;DHT22;57724;52.164;5.408;2022-08-19T05:32:41;20.20;91.40
70202;DHT22;57724;52.164;5.408;2022-08-19T05:35:08;20.30;96.10
70202;DHT22;57724;52.164;5.408;2022-08-19T05:37:36;19.90;97.40
70202;DHT22;57724;52.164;5.408;2022-08-19T05:40:03;19.40;90.80
70202;DHT22;57724;52.164;5.408;2022-08-19T05:42:31;19.20;96.80
70202;DHT22;57724;52.164;5.408;2022-08-19T05:44:58;20.60;93.60
70202;DHT22;57724;52.164;5.408;2022-08-19T05:54:52;19.30;95.90
70202;DHT22;57724;52.164;5.408;2022-08-19T05:57:21;21.00;96.00
70202;DHT22;57724;52.164;5.408;2022-08-19T06:02:25;19.90;95.50
70202;DHT22;57724;52.164;5.408;2022-08-19T06:04:52;22.00;95.90
70202;DHT22;57724;52.164;5.408;2022-08-19T06:07:19;20.00;95.30
70202;DHT22;57724;52.164;5.408;2022-08-19T06:09:46;20.80;95.30
70202;DHT22;57724;52.164;5.408;2022-08-19T06:12:29;21.30;95.20
70202;DHT22;57724;52.164;5.408;2022-08-19T06:15:05;22.80;95.30
70202;DHT22;57724;52.164;5.408;2022-08-19T06:17:32;22.70;95.10
70202;DHT22;57724;52.164;5.408;2022-08-19T06:20:03;21.90;87.10
70202;DHT22;57724;52.164;5.408;2022-08-19T06:22:30;21.90;88.20
70202;DHT22;57724;52.164;5.408;2022-08-19T06:24:57;21.40;94.40
70202;DHT22;57724;52.164;5.408;2022-08-19T06:32:18;21.70;92.10
70202;DHT22;57724;52.164;5.408;2022-08-19T06:34:46;21.70;93.40
70202;DHT22;57724;52.164;5.408;2022-08-19T06:37:13;23.20;87.50
70202;DHT22;57724;52.164;5.408;2022-08-19T06:39:43;23.30;90.20
70202;DHT22;57724;52.164;5.408;2022-08-19T06:42:11;23.20;87.30
70202;DHT22;57724;52.164;5.408;2022-08-19T06:44:40;24.50;85.40
70202;DHT22;57724;52.164;5.408;2022-08-19T06:47:10;22.50;92.80
70202;DHT22;57724;52.164;5.408;2022-08-19T06:52:08;24.60;92.80
70202;DHT22;57724;52.164;5.408;2022-08-19T06:54:41;22.10;92.00
70202;DHT22;57724;52.164;5.408;2022-08-19T06:57:25;23.10;81.20
70202;DHT22;57724;52.164;5.408;2022-08-19T06:59:52;24.40;92.20
70202;DHT22;57724;52.164;5.408;2022-08-19T07:02:19;24.20;81.80
70202;DHT22;57724;52.164;5.408;2022-08-19T07:04:46;21.90;91.80
70202;DHT22;57724;52.164;5.408;2022-08-19T07:07:19;21.60;91.80
70202;DHT22;57724;52.164;5.408;2022-08-19T07:09:48;22.80;81.60
70202;DHT22;57724;52.164;5.408;2022-08-19T07:12:28;21.70;91.80
70202;DHT22;57724;52.164;5.408;2022-08-19T07:14:57;22.10;92.00
70202;DHT22;57724;52.164;5.408;2022-08-19T07:17:25;22.30;92.00
70202;DHT22;57724;52.164;5.408;2022-08-19T07:19:52;21.70;88.90
70202;DHT22;57724;52.164;5.408;2022-08-19T07:22:20;22.80;81.10
70202;DHT22;57724;52.164;5.408;2022-08-19T07:24:51;22.80;81.30
70202;DHT22;57724;52.164;5.408;2022-08-19T07:27:19;21.50;91.90
70202;DHT22;57724;52.164;5.408;2022-08-19T07:32:24;23.40;92.50
70202;DHT22;57724;52.164;5.408;2022-08-19T07:34:54;22.60;81.30
70202;DHT22;57724;52.164;5.408;2022-08-19T07:37:23;22.00;92.20
70202;DHT22;57724;52.164;5.408;2022-08-19T07:39:58;21.70;90.00
70202;DHT22;57724;52.164;5.408;2022-08-19T07:42:28;24.10;92.80
70202;DHT22;57724;52.164;5.408;2022-08-19T07:44:57;21.70;92.20
70202;DHT22;57724;52.164;5.408;2022-08-19T07:47:24;22.30;92.10
70202;DHT22;57724;52.164;5.408;2022-08-19T07:52:38;24.20;92.40
70202;DHT22;57724;52.164;5.408;2022-08-19T07:55:08;22.90;89.10
70202;DHT22;57724;52.164;5.408;2022-08-19T07:57:55;24.50;84.60
70202;DHT22;57724;52.164;5.408;2022-08-19T08:00:22;24.30;83.80
70202;DHT22;57724;52.164;5.408;2022-08-19T08:02:51;22.90;90.90
70202;DHT22;57724;52.164;5.408;2022-08-19T08:05:22;25.10;91.10
70202;DHT22;57724;52.164;5.408;2022-08-19T08:08:10;23.40;90.60
70202;DHT22;57724;52.164;5.408;2022-08-19T08:11:18;24.40;90.80
70202;DHT22;57724;52.164;5.408;2022-08-19T08:16:27;23.20;77.50
70202;DHT22;57724;52.164;5.408;2022-08-19T08:21:26;23.40;89.90
70202;DHT22;57724;52.164;5.408;2022-08-19T08:23:53;24.70;90.10
70202;DHT22;57724;52.164;5.408;2022-08-19T08:26:22;24.50;85.60
70202;DHT22;57724;52.164;5.408;2022-08-19T08:28:49;23.20;83.00
70202;DHT22;57724;52.164;5.408;2022-08-19T08:31:16;23.20;90.10
70202;DHT22;57724;52.164;5.408;2022-08-19T08:33:46;22.70;77.90
70202;DHT22;57724;52.164;5.408;2022-08-19T08:38:42;23.40;90.30
70202;DHT22;57724;52.164;5.408;2022-08-19T08:44:59;24.50;74.70
70202;DHT22;57724;52.164;5.408;2022-08-19T08:47:30;25.90;81.30
70202;DHT22;57724;52.164;5.408;2022-08-19T08:50:16;24.10;83.80
70202;DHT22;57724;52.164;5.408;2022-08-19T08:52:47;25.20;76.10
70202;DHT22;57724;52.164;5.408;2022-08-19T08:55:18;24.90;85.20
70202;DHT22;57724;52.164;5.408;2022-08-19T09:00:23;27.30;84.40
70202;DHT22;57724;52.164;5.408;2022-08-19T09:02:53;25.80;69.60
70202;DHT22;57724;52.164;5.408;2022-08-19T09:05:21;24.70;72.30
70202;DHT22;57724;52.164;5.408;2022-08-19T09:10:44;24.90;83.30
70202;DHT22;57724;52.164;5.408;2022-08-19T09:16:12;27.40;83.10
70202;DHT22;57724;52.164;5.408;2022-08-19T09:18:43;28.30;81.80
70202;DHT22;57724;52.164;5.408;2022-08-19T09:21:11;27.10;80.00
70202;DHT22;57724;52.164;5.408;2022-08-19T09:23:38;26.60;79.00
70202;DHT22;57724;52.164;5.408;2022-08-19T09:26:13;27.10;77.80
70202;DHT22;57724;52.164;5.408;2022-08-19T09:28:43;27.30;76.30
70202;DHT22;57724;52.164;5.408;2022-08-19T09:31:17;27.00;75.50
70202;DHT22;57724;52.164;5.408;2022-08-19T09:33:44;27.70;74.70
70202;DHT22;57724;52.164;5.408;2022-08-19T09:36:14;27.70;74.00
70202;DHT22;57724;52.164;5.408;2022-08-19T09:41:28;29.90;74.30
70202;DHT22;57724;52.164;5.408;2022-08-19T09:43:56;28.60;59.80
70202;DHT22;57724;52.164;5.408;2022-08-19T09:46:27;28.40;73.60
70202;DHT22;57724;52.164;5.408;2022-08-19T09:48:58;27.50;63.60
70202;DHT22;57724;52.164;5.408;2022-08-19T09:51:32;28.50;59.30
70202;DHT22;57724;52.164;5.408;2022-08-19T09:54:02;27.40;72.00
70202;DHT22;57724;52.164;5.408;2022-08-19T09:56:31;28.10;72.90
70202;DHT22;57724;52.164;5.408;2022-08-19T09:59:01;28.50;59.40
70202;DHT22;57724;52.164;5.408;2022-08-19T10:01:31;28.50;59.70
70202;DHT22;57724;52.164;5.408;2022-08-19T10:03:59;28.10;72.60
70202;DHT22;57724;52.164;5.408;2022-08-19T10:06:29;30.20;66.00
70202;DHT22;57724;52.164;5.408;2022-08-19T10:09:14;29.50;71.20
70202;DHT22;57724;52.164;5.408;2022-08-19T10:11:43;28.50;59.60
70202;DHT22;57724;52.164;5.408;2022-08-19T10:14:20;28.60;68.90
70202;DHT22;57724;52.164;5.408;2022-08-19T10:16:50;28.90;69.60
70202;DHT22;57724;52.164;5.408;2022-08-19T10:21:52;28.60;69.50
70202;DHT22;57724;52.164;5.408;2022-08-19T10:24:19;29.40;69.50
70202;DHT22;57724;52.164;5.408;2022-08-19T10:31:59;29.60;56.00
70202;DHT22;57724;52.164;5.408;2022-08-19T10:34:29;30.40;69.30
70202;DHT22;57724;52.164;5.408;2022-08-19T10:36:57;29.00;60.00
70202;DHT22;57724;52.164;5.408;2022-08-19T10:39:28;30.00;54.20
70202;DHT22;57724;52.164;5.408;2022-08-19T10:41:57;29.00;63.00
70202;DHT22;57724;52.164;5.408;2022-08-19T10:44:25;29.00;67.00
70202;DHT22;57724;52.164;5.408;2022-08-19T10:57:34;32.00;58.10
70202;DHT22;57724;52.164;5.408;2022-08-19T11:00:22;30.80;60.80
70202;DHT22;57724;52.164;5.408;2022-08-19T11:05:18;29.90;56.10
70202;DHT22;57724;52.164;5.408;2022-08-19T11:07:45;30.10;65.10
70202;DHT22;57724;52.164;5.408;2022-08-19T11:10:13;30.00;65.10
70202;DHT22;57724;52.164;5.408;2022-08-19T11:15:14;30.30;65.20
70202;DHT22;57724;52.164;5.408;2022-08-19T11:17:42;31.30;65.80
70202;DHT22;57724;52.164;5.408;2022-08-19T11:20:12;30.20;64.40
70202;DHT22;57724;52.164;5.408;2022-08-19T11:22:40;31.70;65.80
70202;DHT22;57724;52.164;5.408;2022-08-19T11:25:09;31.20;65.90
70202;DHT22;57724;52.164;5.408;2022-08-19T11:27:41;32.10;66.60
70202;DHT22;57724;52.164;5.408;2022-08-19T11:30:10;32.70;66.40
70202;DHT22;57724;52.164;5.408;2022-08-19T11:32:40;31.80;65.80
70202;DHT22;57724;52.164;5.408;2022-08-19T11:35:14;31.40;64.90
70202;DHT22;57724;52.164;5.408;2022-08-19T11:37:41;32.00;66.10
70202;DHT22;57724;52.164;5.408;2022-08-19T11:40:08;32.60;56.00
70202;DHT22;57724;52.164;5.408;2022-08-19T11:45:27;31.70;63.90
70202;DHT22;57724;52.164;5.408;2022-08-19T11:47:54;30.90;49.30
70202;DHT22;57724;52.164;5.408;2022-08-19T11:50:23;33.10;65.00
70202;DHT22;57724;52.164;5.408;2022-08-19T11:52:54;31.20;64.10
70202;DHT22;57724;52.164;5.408;2022-08-19T11:55:21;30.80;63.50
70202;DHT22;57724;52.164;5.408;2022-08-19T11:57:48;30.80;63.40
70202;DHT22;57724;52.164;5.408;2022-08-19T12:00:15;31.80;50.50
70202;DHT22;57724;52.164;5.408;2022-08-19T12:02:42;30.40;63.70
70202;DHT22;57724;52.164;5.408;2022-08-19T12:05:09;30.40;64.60
70202;DHT22;57724;52.164;5.408;2022-08-19T12:07:39;30.00;64.70
70202;DHT22;57724;52.164;5.408;2022-08-19T12:12:36;29.40;66.20
70202;DHT22;57724;52.164;5.408;2022-08-19T12:15:07;29.40;68.00
70202;DHT22;57724;52.164;5.408;2022-08-19T12:17:34;28.70;67.50
70202;DHT22;57724;52.164;5.408;2022-08-19T12:20:00;28.80;69.30
70202;DHT22;57724;52.164;5.408;2022-08-19T12:22:27;28.00;62.40
70202;DHT22;57724;52.164;5.408;2022-08-19T12:24:54;27.70;70.70
70202;DHT22;57724;52.164;5.408;2022-08-19T12:27:21;27.90;72.00
70202;DHT22;57724;52.164;5.408;2022-08-19T12:30:00;28.80;74.20
70202;DHT22;57724;52.164;5.408;2022-08-19T12:32:28;27.40;74.40
70202;DHT22;57724;52.164;5.408;2022-08-19T12:34:55;28.10;73.20
70202;DHT22;57724;52.164;5.408;2022-08-19T12:42:16;27.40;78.00
70202;DHT22;57724;52.164;5.408;2022-08-19T12:44:44;27.50;78.90
70202;DHT22;57724;52.164;5.408;2022-08-19T12:47:12;26.00;70.20
70202;DHT22;57724;52.164;5.408;2022-08-19T12:49:41;26.50;72.70
70202;DHT22;57724;52.164;5.408;2022-08-19T12:52:23;25.90;79.60
70202;DHT22;57724;52.164;5.408;2022-08-19T12:54:51;26.70;67.10
70202;DHT22;57724;52.164;5.408;2022-08-19T12:57:21;26.80;80.80
70202;DHT22;57724;52.164;5.408;2022-08-19T12:59:57;25.90;80.20
70202;DHT22;57724;52.164;5.408;2022-08-19T13:04:51;27.10;79.10
70202;DHT22;57724;52.164;5.408;2022-08-19T13:07:17;28.40;76.90
70202;DHT22;57724;52.164;5.408;2022-08-19T13:09:44;28.50;73.90
70202;DHT22;57724;52.164;5.408;2022-08-19T13:12:11;28.50;77.30
70202;DHT22;57724;52.164;5.408;2022-08-19T13:14:40;27.40;76.90
70202;DHT22;57724;52.164;5.408;2022-08-19T13:17:07;27.50;77.30
70202;DHT22;57724;52.164;5.408;2022-08-19T13:19:39;27.30;77.40
70202;DHT22;57724;52.164;5.408;2022-08-19T13:24:40;27.50;78.50
70202;DHT22;57724;52.164;5.408;2022-08-19T13:27:13;26.80;65.90
70202;DHT22;57724;52.164;5.408;2022-08-19T13:29:41;27.80;79.90
70202;DHT22;57724;52.164;5.408;2022-08-19T13:32:26;26.00;79.20
70202;DHT22;57724;52.164;5.408;2022-08-19T13:35:15;26.90;80.30
70202;DHT22;57724;52.164;5.408;2022-08-19T13:37:43;27.30;81.20
70202;DHT22;57724;52.164;5.408;2022-08-19T13:40:16;26.50;81.10
70202;DHT22;57724;52.164;5.408;2022-08-19T13:42:46;27.70;82.20
70202;DHT22;57724;52.164;5.408;2022-08-19T13:45:18;26.60;69.50
70202;DHT22;57724;52.164;5.408;2022-08-19T13:47:47;25.70;81.70
70202;DHT22;57724;52.164;5.408;2022-08-19T13:50:18;25.40;81.70
70202;DHT22;57724;52.164;5.408;2022-08-19T13:52:45;26.20;82.80
70202;DHT22;57724;52.164;5.408;2022-08-19T13:55:14;26.00;82.70
70202;DHT22;57724;52.164;5.408;2022-08-19T13:57:55;27.30;76.70
70202;DHT22;57724;52.164;5.408;2022-08-19T14:00:24;27.50;77.00
70202;DHT22;57724;52.164;5.408;2022-08-19T14:02:54;25.20;83.00
70202;DHT22;57724;52.164;5.408;2022-08-19T14:05:23;26.10;71.10
70202;DHT22;57724;52.164;5.408;2022-08-19T14:10:18;25.00;83.80
70202;DHT22;57724;52.164;5.408;2022-08-19T14:12:46;26.00;71.10
70202;DHT22;57724;52.164;5.408;2022-08-19T14:15:14;26.90;85.20
70202;DHT22;57724;52.164;5.408;2022-08-19T14:17:43;25.00;83.90
70202;DHT22;57724;52.164;5.408;2022-08-19T14:20:11;25.50;84.10
70202;DHT22;57724;52.164;5.408;2022-08-19T14:22:45;26.80;85.30
70202;DHT22;57724;52.164;5.408;2022-08-19T14:25:19;26.00;70.10
70202;DHT22;57724;52.164;5.408;2022-08-19T14:27:47;27.00;85.70
70202;DHT22;57724;52.164;5.408;2022-08-19T14:30:20;26.20;85.50
70202;DHT22;57724;52.164;5.408;2022-08-19T14:32:47;25.90;86.30
70202;DHT22;57724;52.164;5.408;2022-08-19T14:35:15;26.70;85.90
70202;DHT22;57724;52.164;5.408;2022-08-19T14:37:43;24.50;81.70
70202;DHT22;57724;52.164;5.408;2022-08-19T14:40:17;24.20;87.50
70202;DHT22;57724;52.164;5.408;2022-08-19T14:42:47;25.70;81.50
70202;DHT22;57724;52.164;5.408;2022-08-19T14:45:14;26.10;89.50
70202;DHT22;57724;52.164;5.408;2022-08-19T14:50:11;24.40;89.40
70202;DHT22;57724;52.164;5.408;2022-08-19T14:52:47;24.80;76.50
70202;DHT22;57724;52.164;5.408;2022-08-19T14:55:16;24.80;76.70
70202;DHT22;57724;52.164;5.408;2022-08-19T14:57:44;24.10;89.70
70202;DHT22;57724;52.164;5.408;2022-08-19T15:00:12;24.10;89.50
70202;DHT22;57724;52.164;5.408;2022-08-19T15:02:41;24.60;76.90
70202;DHT22;57724;52.164;5.408;2022-08-19T15:05:08;24.00;80.50
70202;DHT22;57724;52.164;5.408;2022-08-19T15:10:03;24.50;89.30
70202;DHT22;57724;52.164;5.408;2022-08-19T15:12:30;26.50;90.20
70202;DHT22;57724;52.164;5.408;2022-08-19T15:17:24;26.80;88.90
70202;DHT22;57724;52.164;5.408;2022-08-19T15:20:14;26.60;89.30
70202;DHT22;57724;52.164;5.408;2022-08-19T15:22:41;25.60;88.20
70202;DHT22;57724;52.164;5.408;2022-08-19T15:25:12;25.00;87.00
70202;DHT22;57724;52.164;5.408;2022-08-19T15:27:40;27.70;88.50
70202;DHT22;57724;52.164;5.408;2022-08-19T15:30:09;25.80;86.20
70202;DHT22;57724;52.164;5.408;2022-08-19T15:32:38;27.00;72.80
70202;DHT22;57724;52.164;5.408;2022-08-19T15:35:06;28.10;81.20
70202;DHT22;57724;52.164;5.408;2022-08-19T15:37:33;27.20;85.00
70202;DHT22;57724;52.164;5.408;2022-08-19T15:40:05;26.50;75.10
70202;DHT22;57724;52.164;5.408;2022-08-19T15:42:35;27.10;70.70
70202;DHT22;57724;52.164;5.408;2022-08-19T15:45:03;27.40;72.10
70202;DHT22;57724;52.164;5.408;2022-08-19T15:50:17;25.50;84.30
70202;DHT22;57724;52.164;5.408;2022-08-19T15:52:52;25.20;85.10
70202;DHT22;57724;52.164;5.408;2022-08-19T15:55:22;25.30;75.70
70202;DHT22;57724;52.164;5.408;2022-08-19T15:58:06;25.30;81.20
70202;DHT22;57724;52.164;5.408;2022-08-19T16:00:59;24.90;88.30
70202;DHT22;57724;52.164;5.408;2022-08-19T16:03:48;25.30;89.10
70202;DHT22;57724;52.164;5.408;2022-08-19T16:06:46;26.50;90.00
70202;DHT22;57724;52.164;5.408;2022-08-19T16:09:15;26.40;90.00
70202;DHT22;57724;52.164;5.408;2022-08-19T16:11:43;25.70;76.00
70202;DHT22;57724;52.164;5.408;2022-08-19T16:14:19;25.60;74.30
70202;DHT22;57724;52.164;5.408;2022-08-19T16:16:46;26.30;89.90
70202;DHT22;57724;52.164;5.408;2022-08-19T16:19:15;26.50;89.70
70202;DHT22;57724;52.164;5.408;2022-08-19T16:21:45;25.30;75.30
70202;DHT22;57724;52.164;5.408;2022-08-19T16:24:14;25.60;89.20
70202;DHT22;57724;52.164;5.408;2022-08-19T16:26:45;24.70;88.60
70202;DHT22;57724;52.164;5.408;2022-08-19T16:29:13;24.40;88.70
70202;DHT22;57724;52.164;5.408;2022-08-19T16:36:42;24.30;88.90
70202;DHT22;57724;52.164;5.408;2022-08-19T16:39:11;25.30;76.10
70202;DHT22;57724;52.164;5.408;2022-08-19T16:41:40;25.50;75.80
70202;DHT22;57724;52.164;5.408;2022-08-19T16:44:08;25.70;75.50
70202;DHT22;57724;52.164;5.408;2022-08-19T16:46:36;24.90;78.80
70202;DHT22;57724;52.164;5.408;2022-08-19T16:49:04;26.20;74.20
70202;DHT22;57724;52.164;5.408;2022-08-19T16:51:31;25.10;86.10
70202;DHT22;57724;52.164;5.408;2022-08-19T16:54:00;27.30;86.80
70202;DHT22;57724;52.164;5.408;2022-08-19T17:03:49;25.30;80.90
70202;DHT22;57724;52.164;5.408;2022-08-19T17:06:24;25.20;84.80
70202;DHT22;57724;52.164;5.408;2022-08-19T17:08:55;25.00;85.10
70202;DHT22;57724;52.164;5.408;2022-08-19T17:11:23;25.80;84.90
70202;DHT22;57724;52.164;5.408;2022-08-19T17:13:52;26.00;86.30
70202;DHT22;57724;52.164;5.408;2022-08-19T17:16:21;26.10;74.20
70202;DHT22;57724;52.164;5.408;2022-08-19T17:18:55;26.90;87.70
70202;DHT22;57724;52.164;5.408;2022-08-19T17:21:25;24.60;86.50
70202;DHT22;57724;52.164;5.408;2022-08-19T17:23:55;25.60;74.10
70202;DHT22;57724;52.164;5.408;2022-08-19T17:26:23;26.30;88.40
70202;DHT22;57724;52.164;5.408;2022-08-19T17:28:52;25.70;88.30
70202;DHT22;57724;52.164;5.408;2022-08-19T17:31:20;26.10;88.80
70202;DHT22;57724;52.164;5.408;2022-08-19T17:33:48;25.50;88.70
70202;DHT22;57724;52.164;5.408;2022-08-19T17:36:17;25.20;88.50
70202;DHT22;57724;52.164;5.408;2022-08-19T17:41:11;26.80;89.60
70202;DHT22;57724;52.164;5.408;2022-08-19T17:46:10;25.60;88.80
70202;DHT22;57724;52.164;5.408;2022-08-19T17:48:45;24.60;88.20
70202;DHT22;57724;52.164;5.408;2022-08-19T17:53:49;24.40;87.90
70202;DHT22;57724;52.164;5.408;2022-08-19T17:58:44;24.20;88.00
70202;DHT22;57724;52.164;5.408;2022-08-19T18:01:26;23.90;88.00
70202;DHT22;57724;52.164;5.408;2022-08-19T18:14:20;25.40;89.90
70202;DHT22;57724;52.164;5.408;2022-08-19T18:19:26;25.20;90.10
70202;DHT22;57724;52.164;5.408;2022-08-19T18:22:09;24.60;76.40
70202;DHT22;57724;52.164;5.408;2022-08-19T18:24:38;25.40;84.40
70202;DHT22;57724;52.164;5.408;2022-08-19T18:27:05;24.60;90.00
70202;DHT22;57724;52.164;5.408;2022-08-19T18:32:03;23.60;89.70
70202;DHT22;57724;52.164;5.408;2022-08-19T18:34:30;25.80;90.50
70202;DHT22;57724;52.164;5.408;2022-08-19T18:36:57;23.40;89.60
70202;DHT22;57724;52.164;5.408;2022-08-19T18:39:24;23.30;89.60